CML6 weather

Six Mile Lake (Hungry Bay) Seaplane Base
Ontario, Canada

Public forecast

Using degrees Celsius for public forecast. Weather courtesy of forecast.io.

METAR (pilot weather report)

Closest report is Muskoka Airport, 18.1 nm (33.5 km) ENE. Retrieved 2019/05/19 11:00 UTC (49 minutes ago):

CYQA 191100Z AUTO 09004KT 030V150 5SM BR FEW032 BKN140 09/08 A2986 RMK SLP119

TAF (pilot weather forecast)

Forecast is more than 12 hours old.

Closest forecast is Muskoka Airport, 18.1 nm (33.5 km) ENE. Retrieved 2019/05/18 20:00 UTC (16 hours ago):

TAF CYQA 181938Z 1820/1902 VRB03KT P6SM OVC090 FM190000 11005KT P6SM BKN050 RMK FCST BASED ON AUTO OBS. NXT FCST WILL BE ISSUED AT 191145Z